This is the latest recevied weather packets stored in our database for station/object N5SNT-2. If no packets are shown the sender has not sent any weather packets the latest 10 day(s).
| Time | Temp. | Humidity | Pressure | Rain* | Wind** | Luminosity | Snow |
|---|---|---|---|---|---|---|---|
| 1777956743 | 21.11° C | 90% | 1011 hPa | 0 mm | - | 0 W/m² | - |
| 1777956444 | 21.11° C | 90% | 1011 hPa | 0 mm | - | 0 W/m² | - |
| 1777956143 | 21.67° C | 89% | 1011 hPa | 0 mm | - | 0 W/m² | - |
| 1777955843 | 21.67° C | 89% | 1012 hPa | 0 mm | - | 0 W/m² | - |
| 1777955543 | 21.67° C | 89% | 1011 hPa | 0 mm | - | 0 W/m² | - |
| 1777955247 | 21.67° C | 89% | 1012 hPa | 0 mm | - | 0 W/m² | - |
| 1777954944 | 21.67° C | 89% | 1011 hPa | 0 mm | - | 0 W/m² | - |
| 1777954643 | 21.67° C | 89% | 1011 hPa | 0 mm | - | 0 W/m² | - |
| 1777954344 | 21.67° C | 89% | 1011 hPa | 0 mm | - | 0 W/m² | - |
| 1777954043 | 21.67° C | 89% | 1011 hPa | 0 mm | - | 0 W/m² | - |
| 1777942044 | 25.56° C | 74% | 1010 hPa | 0 mm | - | 24 W/m² | - |
| 1777940843 | 25.56° C | 73% | 1010 hPa | 0 mm | - | 42 W/m² | - |
| 1777935144 | 27.22° C | 62% | 1012 hPa | 0 mm | - | 358 W/m² | - |
| 1777934543 | 26.67° C | 63% | 1012 hPa | 0 mm | - | 452 W/m² | - |
| 1777934243 | 27.22° C | 62% | 1012 hPa | 0 mm | - | 154 W/m² | - |
| 1777933943 | 27.22° C | 63% | 1012 hPa | 0 mm | - | 358 W/m² | - |
| 1777933043 | 27.78° C | 61% | 1012 hPa | 0 mm | - | 523 W/m² | - |
| 1777932743 | 26.67° C | 63% | 1012 hPa | 0 mm | - | 570 W/m² | - |
| 1777932443 | 26.67° C | 64% | 1012 hPa | 0 mm | - | 677 W/m² | - |
| 1777932144 | 26.67° C | 62% | 1012 hPa | 0 mm | - | 307 W/m² | - |
| 1777931845 | 26.67° C | 64% | 1012 hPa | 0 mm | - | 309 W/m² | - |
| 1777931545 | 26.67° C | 63% | 1012 hPa | 0 mm | - | 223 W/m² | - |
| 1777931244 | 26.67° C | 64% | 1012 hPa | 0 mm | - | 414 W/m² | - |
| 1777930643 | 26.11° C | 64% | 1012 hPa | 0 mm | - | 317 W/m² | - |
| 1777930044 | 26.67° C | 62% | 1012 hPa | 0 mm | - | 397 W/m² | - |
* Rain latest hour (hover to see other rain measurements)
** Current wind speed in m/s (hover to see current wind gust speed)